createdAt,value
2019-06-26T00:01:48.340Z,5.17
2019-06-26T00:06:52.425Z,5.30
2019-06-26T00:11:57.118Z,5.65
2019-06-26T00:17:01.745Z,5.67
2019-06-26T00:22:06.141Z,5.85
2019-06-26T00:27:10.757Z,5.80
2019-06-26T00:32:14.879Z,5.20
2019-06-26T00:37:19.027Z,5.85
2019-06-26T00:47:26.730Z,6.12
2019-06-26T00:57:34.321Z,6.10
2019-06-26T01:02:38.979Z,5.92
2019-06-26T01:07:43.442Z,6.45
2019-06-26T01:12:47.800Z,6.78
2019-06-26T01:17:52.350Z,5.78
2019-06-26T01:22:58.346Z,6.05
2019-06-26T01:28:04.983Z,6.08
2019-06-26T01:33:09.177Z,6.17
2019-06-26T01:43:22.571Z,6.87
2019-06-26T01:48:28.988Z,6.33
2019-06-26T01:53:34.075Z,6.58
2019-06-26T01:58:44.420Z,5.62
2019-06-26T02:03:49.013Z,6.83
2019-06-26T02:08:55.303Z,7.22
2019-06-26T02:14:03.934Z,7.10
2019-06-26T02:19:12.239Z,6.72
2019-06-26T02:24:16.570Z,7.87
2019-06-26T02:34:24.334Z,7.33
2019-06-26T02:39:29.013Z,7.92
2019-06-26T02:44:52.134Z,8.95
2019-06-26T02:49:41.107Z,7.95
2019-06-26T02:54:46.376Z,8.65
2019-06-26T02:59:50.537Z,9.68
2019-06-26T03:05:00.926Z,9.63
2019-06-26T03:10:05.940Z,9.00
2019-06-26T03:15:10.432Z,9.93
2019-06-26T03:20:20.356Z,10.20
2019-06-26T03:25:24.677Z,10.10
2019-06-26T03:35:35.156Z,11.00
2019-06-26T03:40:44.030Z,11.70
2019-06-26T03:45:51.769Z,11.50
2019-06-26T03:50:56.249Z,11.38
2019-06-26T03:56:00.825Z,11.80
2019-06-26T04:01:05.280Z,11.50
2019-06-26T04:06:10.949Z,11.95
2019-06-26T04:11:22.173Z,11.97
2019-06-26T04:16:26.208Z,11.18
2019-06-26T04:21:33.610Z,12.18
2019-06-26T04:26:39.891Z,11.88
2019-06-26T04:31:51.707Z,11.60
2019-06-26T04:36:56.565Z,12.18
2019-06-26T04:42:04.977Z,10.48
2019-06-26T04:47:13.499Z,11.33
2019-06-26T04:52:17.547Z,12.18
2019-06-26T04:57:24.268Z,11.80
2019-06-26T05:02:28.685Z,12.00
2019-06-26T05:07:33.647Z,12.13
2019-06-26T05:12:38.474Z,12.07
2019-06-26T05:17:42.828Z,12.45
2019-06-26T05:22:47.052Z,12.07
2019-06-26T05:27:51.695Z,12.35
2019-06-26T05:32:56.533Z,12.33
2019-06-26T05:38:00.981Z,12.10
2019-06-26T05:43:07.602Z,13.32
2019-06-26T05:48:11.754Z,13.48
2019-06-26T05:53:16.299Z,12.50
2019-06-26T05:58:20.693Z,12.93
2019-06-26T06:03:25.077Z,12.93
2019-06-26T06:08:29.416Z,13.72
2019-06-26T06:13:34.011Z,14.20
2019-06-26T06:18:41.338Z,16.70
2019-06-26T06:23:48.260Z,15.85
2019-06-26T06:28:52.905Z,15.78
2019-06-26T06:34:04.776Z,14.45
2019-06-26T06:39:09.148Z,15.32
2019-06-26T06:44:13.801Z,15.35
2019-06-26T06:49:17.947Z,15.98
2019-06-26T06:54:22.240Z,15.58
2019-06-26T06:59:27.245Z,16.48
2019-06-26T07:04:31.667Z,16.93
2019-06-26T07:09:36.099Z,17.02
2019-06-26T07:14:40.251Z,15.35
2019-06-26T07:19:45.941Z,16.40
2019-06-26T07:24:50.104Z,16.97
2019-06-26T07:29:54.341Z,15.05
2019-06-26T07:34:58.523Z,15.72
2019-06-26T07:40:02.757Z,13.93
2019-06-26T07:45:07.364Z,14.03
2019-06-26T07:50:12.917Z,14.10
2019-06-26T07:55:17.291Z,13.40
2019-06-26T08:00:21.662Z,13.55
2019-06-26T08:05:26.050Z,12.30
2019-06-26T08:10:30.234Z,11.78
2019-06-26T08:15:34.676Z,11.95
2019-06-26T08:20:55.092Z,10.65
2019-06-26T08:25:45.067Z,10.40
2019-06-26T08:30:49.524Z,11.43
2019-06-26T08:35:53.727Z,10.23
2019-06-26T08:40:57.900Z,11.90
2019-06-26T08:46:02.077Z,11.25
2019-06-26T08:51:06.603Z,10.38
2019-06-26T08:56:11.633Z,11.00
2019-06-26T09:01:15.809Z,12.10
2019-06-26T09:06:20.352Z,12.60
2019-06-26T09:11:24.563Z,12.60
2019-06-26T09:16:30.291Z,11.15
2019-06-26T09:21:34.702Z,12.82
2019-06-26T09:26:38.983Z,11.93
2019-06-26T09:31:43.316Z,11.28
2019-06-26T09:36:47.417Z,9.65
2019-06-26T09:41:51.856Z,9.30
2019-06-26T09:46:56.630Z,10.40
2019-06-26T09:52:02.215Z,9.68
2019-06-26T09:57:06.414Z,7.67
2019-06-26T10:02:10.868Z,6.75
2019-06-26T10:07:15.739Z,5.28
2019-06-26T10:12:20.496Z,5.50
2019-06-26T10:17:24.890Z,5.75
2019-06-26T10:22:29.101Z,5.08
2019-06-26T10:27:33.891Z,5.05
2019-06-26T10:32:40.129Z,5.30
2019-06-26T10:37:44.482Z,5.30
2019-06-26T10:42:51.087Z,4.22
2019-06-26T10:47:55.406Z,4.12
2019-06-26T10:52:59.741Z,4.72
2019-06-26T10:58:03.852Z,4.87
2019-06-26T11:03:08.072Z,5.50
2019-06-26T11:08:12.407Z,5.25
2019-06-26T11:13:18.461Z,5.12
2019-06-26T11:18:22.622Z,5.03
2019-06-26T11:23:26.830Z,4.53
2019-06-26T11:28:30.835Z,5.25
2019-06-26T11:33:37.978Z,4.42
2019-06-26T11:38:42.453Z,4.22
2019-06-26T11:43:48.125Z,3.80
2019-06-26T11:48:52.863Z,4.75
2019-06-26T11:53:58.984Z,4.75
2019-06-26T11:59:02.794Z,5.05
2019-06-26T12:04:06.986Z,5.35
2019-06-26T12:09:11.530Z,4.67
2019-06-26T12:14:17.494Z,4.47
2019-06-26T12:19:23.583Z,4.42
2019-06-26T12:24:28.251Z,4.08
2019-06-26T12:29:33.093Z,4.95
2019-06-26T12:34:39.361Z,5.45
2019-06-26T12:39:43.944Z,5.92
2019-06-26T12:44:48.582Z,6.17
2019-06-26T12:49:53.061Z,7.15
2019-06-26T12:54:59.271Z,7.90
2019-06-26T13:00:12.597Z,6.85
2019-06-26T13:05:17.024Z,6.40
2019-06-26T13:10:23.035Z,7.65
2019-06-26T13:15:27.452Z,7.95
2019-06-26T13:20:31.660Z,7.37
2019-06-26T13:25:36.173Z,9.70
2019-06-26T13:30:40.873Z,9.65
2019-06-26T13:35:45.427Z,10.25
2019-06-26T13:41:11.121Z,9.65
2019-06-26T13:46:15.165Z,10.98
2019-06-26T13:51:21.453Z,11.57
2019-06-26T13:56:25.136Z,12.15
2019-06-26T14:01:29.633Z,9.98
2019-06-26T14:06:35.625Z,8.55
2019-06-26T14:11:40.178Z,7.40
2019-06-26T14:16:45.225Z,5.87
2019-06-26T14:21:49.585Z,6.08
2019-06-26T14:26:53.875Z,6.40
2019-06-26T14:31:58.089Z,6.17
2019-06-26T14:37:02.614Z,6.78
2019-06-26T14:42:06.788Z,6.70
2019-06-26T14:47:10.894Z,7.97
2019-06-26T14:52:18.041Z,9.35
2019-06-26T14:57:26.159Z,8.35
2019-06-26T15:02:34.855Z,8.03
2019-06-26T15:07:41.935Z,7.75
2019-06-26T15:12:46.075Z,8.38
2019-06-26T15:17:50.262Z,8.90
2019-06-26T15:22:58.890Z,8.93
2019-06-26T15:28:05.100Z,8.28
2019-06-26T15:33:09.689Z,8.00
2019-06-26T15:38:13.857Z,8.25
2019-06-26T15:43:41.300Z,6.90
2019-06-26T15:48:45.396Z,7.97
2019-06-26T15:53:49.789Z,7.20
2019-06-26T15:58:54.092Z,6.55
2019-06-26T16:03:58.318Z,6.10
2019-06-26T16:09:02.510Z,5.35
2019-06-26T16:14:06.729Z,4.75
2019-06-26T16:19:31.224Z,4.85
2019-06-26T16:24:35.728Z,4.92
2019-06-26T16:30:01.821Z,4.58
2019-06-26T16:35:06.602Z,4.05
2019-06-26T16:40:14.282Z,4.53
2019-06-26T16:45:18.731Z,4.90
2019-06-26T16:50:24.554Z,5.50
2019-06-26T16:55:28.781Z,4.85
2019-06-26T17:00:32.998Z,4.95
2019-06-26T17:05:37.623Z,4.28
2019-06-26T17:10:41.817Z,5.22
2019-06-26T17:15:46.153Z,5.62
2019-06-26T17:20:50.420Z,5.70
2019-06-26T17:25:55.419Z,5.03
2019-06-26T17:31:00.778Z,4.62
2019-06-26T17:36:04.993Z,5.92
2019-06-26T17:41:09.411Z,5.30
2019-06-26T17:46:13.560Z,5.47
2019-06-26T17:51:18.104Z,5.58
2019-06-26T17:56:22.480Z,6.20
2019-06-26T18:01:26.628Z,5.78
2019-06-26T18:06:32.335Z,6.60
2019-06-26T18:11:36.526Z,6.95
2019-06-26T18:16:42.585Z,5.90
2019-06-26T18:21:51.008Z,5.45
2019-06-26T18:26:57.531Z,5.15
2019-06-26T18:32:01.850Z,5.17
2019-06-26T18:37:06.070Z,4.55
2019-06-26T18:42:10.148Z,4.28
2019-06-26T18:47:16.897Z,3.45
2019-06-26T18:52:21.022Z,3.60
2019-06-26T18:57:28.209Z,3.72
2019-06-26T19:02:35.106Z,3.50
2019-06-26T19:07:39.515Z,3.50
2019-06-26T19:12:43.705Z,4.03
2019-06-26T19:17:48.000Z,4.20
2019-06-26T19:22:55.184Z,3.35
2019-06-26T19:27:59.372Z,3.70
2019-06-26T19:33:05.966Z,3.37
2019-06-26T19:38:10.566Z,3.00
2019-06-26T19:43:14.685Z,3.17
2019-06-26T19:53:21.916Z,2.93
2019-06-26T20:03:30.695Z,2.80
2019-06-26T20:08:34.906Z,2.42
2019-06-26T20:13:39.152Z,2.42
2019-06-26T20:23:46.831Z,2.08
2019-06-26T20:28:50.950Z,2.17
2019-06-26T20:33:55.102Z,2.15
2019-06-26T20:39:00.991Z,2.27
2019-06-26T20:44:05.155Z,2.12
2019-06-26T20:54:12.586Z,2.05
2019-06-26T20:59:16.680Z,2.15
2019-06-26T21:04:21.405Z,1.80
2019-06-26T21:09:27.209Z,1.70
2019-06-26T21:14:32.634Z,1.47
2019-06-26T21:19:37.129Z,1.70
2019-06-26T21:24:43.538Z,1.80
2019-06-26T21:29:49.010Z,1.70
2019-06-26T21:34:55.925Z,1.47
2019-06-26T21:40:00.025Z,1.77
2019-06-26T21:45:04.404Z,1.77
2019-06-26T21:55:13.587Z,1.80
2019-06-26T22:00:19.719Z,1.65
2019-06-26T22:05:24.217Z,2.02
2019-06-26T22:10:28.452Z,1.67
2019-06-26T22:15:32.975Z,1.62
2019-06-26T22:20:41.348Z,1.42
2019-06-26T22:25:50.718Z,1.62
2019-06-26T22:30:51.976Z,1.35
2019-06-26T22:35:56.447Z,1.72
2019-06-26T22:41:00.812Z,1.37
2019-06-26T22:51:08.300Z,1.70
2019-06-26T23:01:18.199Z,1.70
2019-06-26T23:06:22.274Z,1.50
2019-06-26T23:11:26.498Z,1.57
2019-06-26T23:16:30.647Z,1.62
2019-06-26T23:21:38.388Z,1.52
2019-06-26T23:26:43.941Z,1.52
2019-06-26T23:32:03.408Z,1.65
2019-06-26T23:37:09.387Z,1.35
2019-06-26T23:42:15.526Z,1.50
2019-06-26T23:47:19.505Z,1.35
2019-06-26T23:52:23.752Z,1.52
2019-06-26T23:57:28.079Z,1.77
